Impacts METAR Board
IDs:

KRNH - New Richmond Muni, WI, US

Updated at: 1200 UTC 23 Sep 2018
Potential Impact None Slight Moderate High
Time 23/00Z 23/01Z 23/02Z 23/03Z 23/04Z 23/05Z 23/06Z 23/07Z 23/08Z 23/09Z 23/10Z 23/11Z 23/12Z
Temp59 56 55 54 53 52 49 49 48 47 47 47 46
Dewpt43 43 44 44 44 44 44 44 44 44 44 44 45
Altim30.09 30.09 30.07 30.07 30.09 30.10 30.09 30.09 30.09 30.07 30.07 30.07 30.09
VIS10 10 10 10 10 10 10 10 10 10 10 10 10
CIG-- -- -- -- -- -- -- -- 100 -- -- -- --
CoverCLRCLRCLRCLRSCTSCTSCTCLRBKNCLRCLRCLRCLR
FltCatVFRVFRVFRVFRVFRVFRVFRVFRVFRVFRVFRVFRVFR
WX--------------------------
WDir1701501501601601701301301400130130130
WSpd6 5 5 7 6 3 3 4 4 0 4 3 3
WGst-- -- -- -- -- -- -- -- -- -- -- -- --
Raw hourly METARs
KRNH 222355Z AUTO 17006KT 10SM CLR 15/06 A3009 RMK AO2 T01500060 10182 20150
KRNH 230055Z AUTO 15005KT 10SM CLR 14/06 A3009 RMK AO2 T01350060
KRNH 230155Z AUTO 15005KT 10SM CLR 13/07 A3007 RMK AO2 T01250065
KRNH 230255Z AUTO 16007KT 10SM CLR 12/07 A3007 RMK AO2 T01230065
KRNH 230355Z AUTO 16006KT 10SM SCT110 12/07 A3009 RMK AO2 T01160065
KRNH 230455Z AUTO 17003KT 10SM SCT120 11/07 A3010 RMK AO2 T01110065
KRNH 230555Z AUTO 13003KT 10SM SCT110 10/06 A3009 RMK AO2 T00960064 10149 20096 401820030
KRNH 230655Z AUTO 13004KT 10SM CLR 09/07 A3009 RMK AO2 T00930065
KRNH 230755Z AUTO 14004KT 10SM BKN100 09/07 A3009 RMK AO2 T00900066
KRNH 230855Z AUTO 00000KT 10SM CLR 09/07 A3007 RMK AO2 T00850065
KRNH 230955Z AUTO 13004KT 10SM CLR 09/07 A3007 RMK AO2 T00850068
KRNH 231055Z AUTO 13003KT 10SM CLR 08/07 A3007 RMK AO2 T00810068
KRNH 231155Z AUTO 13003KT 10SM CLR 08/07 A3009 RMK AO2 T00800071 10098 20079



Page loaded:  12:21 UTC  |   05:21 AM Pacific  |   06:21 AM Mountain  |   07:21 AM Central  |   08:21 AM Eastern

 

ADVISORIES

FORECASTS

FORECASTS

OBSERVATIONS

USER TOOLS

ABOUT US